Time;durP1;ratioP1;P1;durP2;ratioP2;P2;SDS_P1;SDS_P2;PMS_P1;PMS_P2;Temp;Humidity;BMP_temperature;BMP_pressure;BME280_temperature;BME280_humidity;BME280_pressure;Samples;Min_cycle;Max_cycle;Signal;HPM_P1;HPM_P2
2022/02/19 00:01:06;;;;;;;3.25;0.57;;;6.40;99.90;;;;;;5056299;28;20048;-72
2022/02/19 00:03:33;;;;;;;3.85;0.57;;;6.40;99.90;;;;;;5057861;28;20067;-72
2022/02/19 00:06:00;;;;;;;1.35;0.50;;;6.40;99.90;;;;;;5069794;28;20140;-71
2022/02/19 00:08:27;;;;;;;1.45;0.40;;;6.40;99.90;;;;;;5048680;28;20135;-72
2022/02/19 00:10:53;;;;;;;1.58;0.70;;;6.40;99.90;;;;;;5050591;28;20116;-72
2022/02/19 00:13:25;;;;;;;2.08;0.45;;;6.40;99.90;;;;;;5034059;28;20041;-72
2022/02/19 00:15:57;;;;;;;4.60;0.50;;;6.40;99.90;;;;;;5047815;28;20139;-72
2022/02/19 00:18:29;;;;;;;2.95;0.47;;;6.30;99.90;;;;;;5051994;28;20652;-72
2022/02/19 00:20:56;;;;;;;1.98;0.47;;;6.40;99.90;;;;;;5050689;28;20080;-72
2022/02/19 00:23:28;;;;;;;2.35;0.50;;;6.40;99.90;;;;;;5033410;28;20051;-71
2022/02/19 00:25:55;;;;;;;2.45;0.60;;;6.40;99.90;;;;;;5051804;28;20069;-72
2022/02/19 00:28:27;;;;;;;2.28;0.60;;;6.40;99.90;;;;;;5050624;28;20381;-72
2022/02/19 00:30:59;;;;;;;3.88;0.50;;;6.40;99.90;;;;;;5050176;28;20127;-72
2022/02/19 00:33:32;;;;;;;1.75;0.70;;;6.40;99.90;;;;;;5050715;28;20443;-72
2022/02/19 00:36:04;;;;;;;1.83;0.40;;;6.40;99.90;;;;;;5036534;28;20497;-72
2022/02/19 00:38:31;;;;;;;1.13;0.60;;;6.40;99.90;;;;;;5053718;28;20049;-72
2022/02/19 00:41:03;;;;;;;1.88;1.08;;;6.40;99.90;;;;;;5053626;28;20450;-71
2022/02/19 00:43:43;;;;;;;2.72;0.57;;;6.40;99.90;;;;;;5055214;28;20094;-71
2022/02/19 00:46:15;;;;;;;1.67;0.50;;;6.40;99.90;;;;;;5091651;28;20123;-71
2022/02/19 00:48:47;;;;;;;1.58;0.52;;;6.40;99.90;;;;;;5073338;28;20046;-72
2022/02/19 00:51:14;;;;;;;2.70;0.70;;;6.40;99.90;;;;;;5084900;28;20043;-72
2022/02/19 00:53:46;;;;;;;3.55;1.13;;;6.40;99.90;;;;;;5052698;28;20468;-72
2022/02/19 00:56:13;;;;;;;2.33;0.70;;;6.30;99.90;;;;;;5053361;28;20072;-72
2022/02/19 00:58:45;;;;;;;3.92;0.47;;;6.30;99.90;;;;;;5037257;28;20446;-72
2022/02/19 01:01:18;;;;;;;1.48;0.57;;;6.30;99.90;;;;;;5053299;28;20047;-72
2022/02/19 01:03:52;;;;;;;2.67;0.63;;;6.30;99.90;;;;;;5052632;28;20071;-72
2022/02/19 01:06:24;;;;;;;2.03;0.47;;;6.30;99.90;;;;;;5062916;28;20138;-72
2022/02/19 01:08:56;;;;;;;1.67;0.50;;;6.20;99.90;;;;;;5074163;28;20042;-72
2022/02/19 01:11:23;;;;;;;3.28;0.40;;;6.20;99.90;;;;;;5091168;28;20059;-71
2022/02/19 01:13:56;;;;;;;3.00;0.57;;;6.20;99.90;;;;;;5073698;28;20036;-72
2022/02/19 01:16:27;;;;;;;2.47;0.70;;;6.10;99.90;;;;;;5057240;28;20036;-72
2022/02/19 01:18:59;;;;;;;5.40;0.90;;;6.10;99.90;;;;;;5072879;28;20094;-72
2022/02/19 01:21:31;;;;;;;2.15;0.63;;;6.10;99.90;;;;;;5073610;28;20068;-72
2022/02/19 01:24:04;;;;;;;3.00;0.50;;;6.10;99.90;;;;;;5036878;28;20068;-72
2022/02/19 01:26:33;;;;;;;3.33;0.88;;;6.10;99.90;;;;;;5052959;28;20052;-72
2022/02/19 01:29:05;;;;;;;1.45;0.30;;;6.10;99.90;;;;;;5053083;28;20052;-72
2022/02/19 01:31:33;;;;;;;3.72;0.60;;;6.00;99.90;;;;;;5054887;28;20153;-72
2022/02/19 01:33:59;;;;;;;3.22;0.60;;;6.00;99.90;;;;;;5072377;28;20073;-72
2022/02/19 01:36:37;;;;;;;1.48;0.30;;;6.00;99.90;;;;;;5072942;28;20127;-72
2022/02/19 01:39:06;;;;;;;1.77;0.50;;;5.90;99.90;;;;;;5072906;28;20071;-72
2022/02/19 01:41:38;;;;;;;1.83;0.63;;;5.90;99.90;;;;;;5072701;28;20422;-72
2022/02/19 01:44:10;;;;;;;3.58;0.40;;;5.90;99.90;;;;;;5088949;28;20098;-72
2022/02/19 01:46:42;;;;;;;1.85;0.50;;;5.90;99.90;;;;;;5058084;28;20040;-72
2022/02/19 01:49:10;;;;;;;1.23;0.50;;;5.90;99.90;;;;;;5076916;28;20044;-72
2022/02/19 01:51:43;;;;;;;1.90;0.50;;;5.90;99.90;;;;;;5060808;28;20086;-72
2022/02/19 01:54:16;;;;;;;1.90;1.02;;;5.90;99.90;;;;;;5076125;28;20147;-72
2022/02/19 01:56:55;;;;;;;3.65;0.60;;;5.90;99.90;;;;;;5076508;28;20032;-72
2022/02/19 01:59:43;;;;;;;3.50;0.70;;;5.90;99.90;;;;;;5062595;28;20044;-71
2022/02/19 02:02:34;;;;;;;2.42;0.45;;;5.80;99.90;;;;;;5078454;28;20190;-72
2022/02/19 02:05:37;;;;;;;1.90;0.50;;;5.80;99.90;;;;;;5055867;28;20050;-72
2022/02/19 02:08:10;;;;;;;1.63;0.50;;;5.80;99.90;;;;;;5056697;28;20103;-72
2022/02/19 02:10:41;;;;;;;2.17;0.52;;;5.80;99.90;;;;;;5055789;28;20048;-72
2022/02/19 02:13:27;;;;;;;1.73;0.60;;;5.80;99.90;;;;;;5055044;28;20048;-72
2022/02/19 02:15:55;;;;;;;2.65;0.70;;;5.70;99.90;;;;;;5055912;28;20511;-72
2022/02/19 02:18:34;;;;;;;4.65;0.90;;;5.70;99.90;;;;;;5070121;28;20047;-72
2022/02/19 02:21:01;;;;;;;2.88;0.70;;;5.70;99.90;;;;;;5075669;28;20075;-72
2022/02/19 02:23:28;;;;;;;1.92;0.60;;;5.70;99.90;;;;;;5075012;28;20102;-71
2022/02/19 02:26:03;;;;;;;5.15;0.90;;;5.70;99.90;;;;;;5075428;28;20052;-72
2022/02/19 02:28:35;;;;;;;3.92;0.70;;;5.70;99.90;;;;;;5059560;28;20070;-71
2022/02/19 02:31:08;;;;;;;2.22;0.70;;;5.70;99.90;;;;;;5092274;28;20524;-72
2022/02/19 02:33:42;;;;;;;2.88;0.77;;;5.70;99.90;;;;;;5058320;28;20074;-72
2022/02/19 02:36:19;;;;;;;4.28;1.25;;;5.70;99.90;;;;;;5076518;28;20047;-72
2022/02/19 02:38:53;;;;;;;1.83;0.70;;;5.70;99.90;;;;;;5059673;28;20612;-72
2022/02/19 02:41:26;;;;;;;2.22;0.50;;;5.70;99.90;;;;;;5059613;28;20131;-72
2022/02/19 02:44:05;;;;;;;2.70;1.08;;;5.60;99.90;;;;;;5059442;28;20101;-72
2022/02/19 02:46:32;;;;;;;3.10;0.77;;;5.60;99.90;;;;;;5074563;28;20052;-71
2022/02/19 02:49:07;;;;;;;2.40;0.60;;;5.50;99.90;;;;;;5091992;28;20139;-72
2022/02/19 02:51:39;;;;;;;1.40;0.60;;;5.50;99.90;;;;;;5091722;28;20131;-72
2022/02/19 02:54:11;;;;;;;2.72;0.93;;;5.50;99.90;;;;;;5058547;28;20032;-72
2022/02/19 02:56:51;;;;;;;4.20;0.82;;;5.50;99.90;;;;;;5091375;28;20044;-72
2022/02/19 02:59:24;;;;;;;2.47;0.68;;;5.40;99.90;;;;;;5059222;28;20036;-72
2022/02/19 03:01:52;;;;;;;3.17;0.75;;;5.40;99.90;;;;;;5074687;28;20101;-72
2022/02/19 03:04:24;;;;;;;4.18;1.02;;;5.40;99.90;;;;;;5074459;28;20048;-72
2022/02/19 03:06:56;;;;;;;4.15;0.85;;;5.30;99.90;;;;;;5058444;28;20040;-72
2022/02/19 03:09:24;;;;;;;2.60;0.85;;;5.30;99.90;;;;;;5074652;28;20503;-71
2022/02/19 03:11:56;;;;;;;3.22;0.82;;;5.40;99.90;;;;;;5074461;28;20044;-72
2022/02/19 03:14:25;;;;;;;6.78;0.80;;;5.40;99.90;;;;;;5090948;28;20507;-71
2022/02/19 03:16:57;;;;;;;4.38;1.10;;;5.40;99.90;;;;;;5046634;28;20045;-72
2022/02/19 03:19:29;;;;;;;2.65;0.68;;;5.40;99.90;;;;;;5054543;28;20449;-72
2022/02/19 03:22:01;;;;;;;6.68;0.77;;;5.50;99.90;;;;;;5038595;28;20055;-72
2022/02/19 03:24:31;;;;;;;2.85;0.73;;;5.40;99.90;;;;;;5072147;28;20055;-72
2022/02/19 03:27:06;;;;;;;2.63;0.95;;;5.40;99.90;;;;;;5054599;28;20052;-71
2022/02/19 03:29:38;;;;;;;8.02;2.50;;;5.40;99.90;;;;;;5071151;28;20044;-72
2022/02/19 03:32:06;;;;;;;3.40;0.77;;;5.40;99.90;;;;;;5054179;28;20037;-72
2022/02/19 03:34:33;;;;;;;4.15;0.70;;;5.40;99.90;;;;;;5053630;28;20068;-72
2022/02/19 03:37:05;;;;;;;4.40;1.10;;;5.40;99.90;;;;;;5038369;28;20507;-72
2022/02/19 03:39:37;;;;;;;4.32;0.80;;;5.30;99.90;;;;;;5054211;28;20522;-72
2022/02/19 03:42:09;;;;;;;5.50;0.98;;;5.30;99.90;;;;;;5051302;28;20098;-72
2022/02/19 03:44:42;;;;;;;3.42;0.95;;;5.20;99.90;;;;;;5090290;28;20040;-71
2022/02/19 03:47:21;;;;;;;1.65;0.52;;;5.10;99.90;;;;;;5090730;28;20078;-72
2022/02/19 03:49:59;;;;;;;4.68;1.08;;;5.00;99.90;;;;;;5073839;28;20040;-72
2022/02/19 03:52:32;;;;;;;2.38;0.70;;;4.90;99.90;;;;;;5089268;28;20048;-72
2022/02/19 03:55:01;;;;;;;2.03;0.75;;;4.80;99.90;;;;;;5090867;28;20059;-72
2022/02/19 03:57:33;;;;;;;;;;;4.80;99.90;;;;;;5057556;28;20533;-72
2022/02/19 04:00:01;;;;;;;4.13;1.15;;;4.80;99.90;;;;;;5090531;28;19924;-72
2022/02/19 04:02:28;;;;;;;4.40;1.17;;;4.80;99.90;;;;;;5033126;28;20045;-72
2022/02/19 04:05:14;;;;;;;4.35;1.25;;;4.80;99.90;;;;;;5033819;28;20098;-72
2022/02/19 04:07:47;;;;;;;2.80;2.08;;;4.80;99.90;;;;;;5062397;28;20439;-72
2022/02/19 04:10:22;;;;;;;6.95;1.17;;;4.80;99.90;;;;;;5052864;28;20048;-72
2022/02/19 04:12:54;;;;;;;4.15;1.05;;;4.80;99.90;;;;;;5053046;28;20040;-72
2022/02/19 04:15:38;;;;;;;2.08;0.82;;;4.80;99.90;;;;;;5053286;28;20044;-72
2022/02/19 04:18:10;;;;;;;3.67;0.90;;;4.80;99.90;;;;;;5053322;28;20135;-72
2022/02/19 04:20:37;;;;;;;4.88;1.95;;;4.80;99.90;;;;;;5052573;28;20074;-71
2022/02/19 04:23:10;;;;;;;5.25;0.80;;;4.90;99.90;;;;;;5037451;28;20049;-72
2022/02/19 04:25:42;;;;;;;4.55;0.90;;;4.90;99.90;;;;;;5053707;28;20048;-71
2022/02/19 04:28:24;;;;;;;4.40;1.08;;;4.90;99.90;;;;;;5053711;28;20055;-72
2022/02/19 04:30:57;;;;;;;3.55;0.90;;;4.90;99.90;;;;;;5053288;28;20048;-72
2022/02/19 04:33:24;;;;;;;7.25;1.02;;;5.00;99.90;;;;;;5053132;28;20071;-72
2022/02/19 04:35:57;;;;;;;3.22;1.27;;;5.00;99.90;;;;;;5053878;28;20040;-72
2022/02/19 04:38:30;;;;;;;5.13;1.67;;;4.90;99.90;;;;;;5073598;28;20044;-72
2022/02/19 04:41:05;;;;;;;4.57;1.15;;;4.90;99.90;;;;;;5073659;28;20040;-72
2022/02/19 04:43:37;;;;;;;2.60;0.70;;;4.90;99.90;;;;;;5072871;28;20040;-72
2022/02/19 04:46:08;;;;;;;3.47;0.75;;;4.80;99.90;;;;;;5073235;28;20418;-72
2022/02/19 04:48:40;;;;;;;5.15;1.10;;;4.90;99.90;;;;;;5073482;28;20048;-72
2022/02/19 04:51:12;;;;;;;5.53;1.80;;;4.90;99.90;;;;;;5073431;28;20072;-72
2022/02/19 04:53:44;;;;;;;3.75;1.27;;;4.90;99.90;;;;;;5072556;28;20067;-72
2022/02/19 04:56:16;;;;;;;3.30;0.88;;;4.90;99.90;;;;;;5073499;28;20071;-72
2022/02/19 04:58:50;;;;;;;3.10;1.02;;;4.90;99.90;;;;;;5090224;28;20036;-72
2022/02/19 05:01:16;;;;;;;4.30;1.25;;;4.90;99.90;;;;;;5073180;28;20040;-72
2022/02/19 05:04:07;;;;;;;2.75;1.15;;;4.90;99.90;;;;;;5072659;28;20044;-72
2022/02/19 05:07:05;;;;;;;3.25;1.25;;;4.90;99.90;;;;;;5089017;28;20066;-72
2022/02/19 05:09:40;;;;;;;4.30;1.20;;;4.90;99.90;;;;;;5057865;28;20564;-72
2022/02/19 05:12:12;;;;;;;5.03;1.05;;;4.90;99.90;;;;;;5073007;28;20521;-72
2022/02/19 05:14:45;;;;;;;2.25;0.90;;;4.90;99.90;;;;;;5087756;28;20056;-71
2022/02/19 05:17:50;;;;;;;4.65;1.10;;;4.80;99.90;;;;;;5056711;28;20044;-71
2022/02/19 05:20:21;;;;;;;4.90;1.00;;;4.80;99.90;;;;;;5059917;28;20044;-72
2022/02/19 05:22:54;;;;;;;2.70;0.98;;;4.80;99.90;;;;;;5073281;28;20036;-72
2022/02/19 05:25:29;;;;;;;2.90;0.77;;;4.80;99.90;;;;;;5057659;28;20052;-72
2022/02/19 05:28:01;;;;;;;5.75;1.60;;;4.80;99.90;;;;;;5073162;28;20082;-72
2022/02/19 05:30:35;;;;;;;4.07;1.10;;;4.80;99.90;;;;;;5088656;28;20052;-72
2022/02/19 05:33:25;;;;;;;3.15;0.77;;;4.70;99.90;;;;;;5056054;28;20595;-72
2022/02/19 05:35:56;;;;;;;5.90;1.02;;;4.70;99.90;;;;;;5052790;28;20124;-72
2022/02/19 05:38:23;;;;;;;8.73;2.28;;;4.80;99.90;;;;;;5052868;28;20491;-72
2022/02/19 05:40:56;;;;;;;8.13;1.83;;;4.80;99.90;;;;;;5054097;28;20090;-72
2022/02/19 05:43:30;;;;;;;3.22;1.27;;;4.70;99.90;;;;;;5036798;28;20063;-72
2022/02/19 05:46:12;;;;;;;5.53;1.35;;;4.70;99.90;;;;;;5052707;28;20045;-72
2022/02/19 05:48:45;;;;;;;6.32;1.05;;;4.70;99.90;;;;;;5052830;28;20047;-72
2022/02/19 05:51:20;;;;;;;4.30;1.30;;;4.60;99.90;;;;;;5072665;28;20056;-72
2022/02/19 05:53:53;;;;;;;6.20;1.52;;;4.60;99.90;;;;;;5088988;28;20070;-72
2022/02/19 05:56:25;;;;;;;3.03;1.00;;;4.60;99.90;;;;;;5073120;28;20132;-72
2022/02/19 05:58:58;;;;;;;8.98;2.35;;;4.60;99.90;;;;;;5072746;28;20040;-72
2022/02/19 06:01:32;;;;;;;5.32;1.00;;;4.60;99.90;;;;;;5048933;28;20036;-72
2022/02/19 06:04:00;;;;;;;3.55;0.95;;;4.60;99.90;;;;;;5088951;28;20083;-72
2022/02/19 06:06:32;;;;;;;3.92;1.30;;;4.60;99.90;;;;;;5072517;28;20043;-72
2022/02/19 06:09:04;;;;;;;4.25;0.88;;;4.70;99.90;;;;;;5072687;28;20568;-72
2022/02/19 06:11:40;;;;;;;5.63;1.17;;;4.60;99.90;;;;;;5056988;28;20127;-72
2022/02/19 06:14:40;;;;;;;3.60;1.15;;;4.60;99.90;;;;;;5077038;28;20056;-72
2022/02/19 06:17:13;;;;;;;2.92;0.80;;;4.60;99.90;;;;;;5069531;28;20068;-72
2022/02/19 06:19:39;;;;;;;4.50;0.85;;;4.70;99.90;;;;;;5052672;28;20111;-70
2022/02/19 06:22:14;;;;;;;5.90;1.08;;;4.70;99.90;;;;;;5052522;28;20497;-72
2022/02/19 06:24:49;;;;;;;4.05;0.90;;;4.70;99.90;;;;;;5052361;28;20055;-72
2022/02/19 06:27:22;;;;;;;3.17;0.80;;;4.60;99.90;;;;;;5036708;28;20044;-70
2022/02/19 06:29:59;;;;;;;4.43;1.00;;;4.70;99.90;;;;;;5062553;28;20074;-72
2022/02/19 06:32:38;;;;;;;4.13;1.88;;;4.70;99.90;;;;;;5094164;28;20404;-72
2022/02/19 06:35:10;;;;;;;6.63;0.82;;;4.60;99.90;;;;;;5047327;28;20605;-72
2022/02/19 06:37:45;;;;;;;2.90;0.90;;;4.60;99.90;;;;;;5053922;28;20037;-72
2022/02/19 06:40:14;;;;;;;3.05;0.75;;;4.60;99.90;;;;;;5054831;28;20048;-72
2022/02/19 06:42:43;;;;;;;9.15;1.20;;;4.60;99.90;;;;;;5073125;28;20044;-72
2022/02/19 06:45:21;;;;;;;6.72;1.67;;;4.60;99.90;;;;;;5066792;28;20101;-72
2022/02/19 06:47:48;;;;;;;5.90;1.10;;;4.60;99.90;;;;;;5107041;28;20051;-71
2022/02/19 06:50:20;;;;;;;3.85;0.90;;;4.60;99.90;;;;;;5060410;28;20052;-72
2022/02/19 06:52:48;;;;;;;6.88;1.60;;;4.60;99.90;;;;;;5057120;28;20074;-71
2022/02/19 06:55:22;;;;;;;4.78;1.30;;;4.50;99.90;;;;;;5090912;28;20143;-72
2022/02/19 06:57:55;;;;;;;5.95;1.00;;;4.50;99.90;;;;;;5074912;28;20078;-72
2022/02/19 07:00:31;;;;;;;10.05;2.60;;;4.40;99.90;;;;;;5059527;28;20093;-72
2022/02/19 07:03:06;;;;;;;8.65;1.38;;;4.50;99.90;;;;;;5092400;28;20048;-71
2022/02/19 07:05:41;;;;;;;7.63;1.02;;;4.60;99.90;;;;;;5075052;28;20116;-71
2022/02/19 07:08:25;;;;;;;5.97;1.10;;;4.60;99.90;;;;;;5057253;28;20106;-71
2022/02/19 07:10:57;;;;;;;13.85;2.22;;;4.60;99.90;;;;;;5072862;28;20203;-72
2022/02/19 07:13:30;;;;;;;3.63;1.00;;;4.60;99.90;;;;;;5054024;28;20041;-71
2022/02/19 07:16:02;;;;;;;6.57;1.30;;;4.60;99.90;;;;;;5054699;28;20068;-71
2022/02/19 07:18:41;;;;;;;6.10;2.45;;;4.60;99.90;;;;;;5053950;28;20169;-70
2022/02/19 07:21:15;;;;;;;;;;;4.70;99.90;;;;;;5086922;28;20032;-71
2022/02/19 07:23:48;;;;;;;8.60;1.25;;;4.70;99.90;;;;;;5073727;28;19939;-72
2022/02/19 07:26:25;;;;;;;4.03;1.15;;;4.70;99.90;;;;;;5074568;28;20044;-71
2022/02/19 07:29:03;;;;;;;4.00;1.00;;;4.70;99.90;;;;;;5092781;28;20130;-72
2022/02/19 07:31:36;;;;;;;5.77;1.53;;;4.80;99.90;;;;;;5091989;28;20044;-72
2022/02/19 07:34:08;;;;;;;5.97;1.13;;;4.80;99.90;;;;;;5085298;28;20050;-71
2022/02/19 07:36:40;;;;;;;5.72;1.65;;;4.80;99.90;;;;;;5075036;28;20036;-72
2022/02/19 07:39:08;;;;;;;7.25;1.23;;;4.90;99.90;;;;;;5058475;28;20524;-71
2022/02/19 07:41:40;;;;;;;7.93;2.13;;;4.90;99.90;;;;;;5070778;28;20043;-72
2022/02/19 07:44:15;;;;;;;10.85;1.23;;;4.90;99.90;;;;;;5078013;28;20046;-72
2022/02/19 07:47:07;;;;;;;7.55;1.20;;;5.00;99.90;;;;;;5078522;28;20044;-72
2022/02/19 07:59:00;;;;;;;2.90;0.93;;;5.00;99.90;;;;;;5066541;28;20081;-72
2022/02/19 08:01:27;;;;;;;7.18;1.02;;;5.10;99.90;;;;;;5070156;28;20043;-71
2022/02/19 08:03:53;;;;;;;9.45;1.77;;;5.20;99.90;;;;;;5069332;28;20044;-72
2022/02/19 08:06:25;;;;;;;4.15;1.50;;;5.20;99.90;;;;;;5062167;28;20070;-71
2022/02/19 08:08:57;;;;;;;5.05;1.20;;;5.20;99.90;;;;;;5073180;28;20482;-72
2022/02/19 08:11:29;;;;;;;6.80;1.55;;;5.30;99.90;;;;;;5073166;28;20047;-71
2022/02/19 08:14:01;;;;;;;6.53;1.23;;;5.30;99.90;;;;;;5090947;28;20159;-72
2022/02/19 08:16:28;;;;;;;4.78;1.20;;;5.40;99.90;;;;;;5072959;28;20526;-72
2022/02/19 08:19:00;;;;;;;5.93;0.93;;;5.40;99.90;;;;;;5090372;28;20055;-71
2022/02/19 08:21:32;;;;;;;4.60;1.25;;;5.40;99.90;;;;;;5091691;28;20035;-72
2022/02/19 08:24:04;;;;;;;6.75;1.30;;;5.50;99.90;;;;;;5071085;28;20050;-72
2022/02/19 08:26:36;;;;;;;7.00;1.15;;;5.50;99.90;;;;;;5073572;28;20043;-72
2022/02/19 08:29:08;;;;;;;2.95;1.08;;;5.50;99.90;;;;;;5089766;28;20047;-72
2022/02/19 08:31:40;;;;;;;4.72;1.17;;;5.50;99.90;;;;;;5073439;28;20044;-72
2022/02/19 08:34:07;;;;;;;6.65;1.45;;;5.60;99.90;;;;;;5072733;28;20472;-71
2022/02/19 08:36:39;;;;;;;3.92;0.88;;;5.60;99.90;;;;;;5069011;28;20070;-72
2022/02/19 08:39:10;;;;;;;6.82;1.10;;;5.70;99.90;;;;;;5072829;28;20044;-73
2022/02/19 08:41:42;;;;;;;4.97;1.13;;;5.70;99.90;;;;;;5101958;28;20046;-73
2022/02/19 08:44:14;;;;;;;5.25;1.08;;;5.70;99.90;;;;;;5057220;28;20050;-72
2022/02/19 08:46:42;;;;;;;4.60;1.58;;;5.80;99.90;;;;;;5089097;28;20113;-72
2022/02/19 08:49:15;;;;;;;2.33;0.80;;;5.90;99.90;;;;;;5089876;28;20035;-72
2022/02/19 08:51:47;;;;;;;5.82;1.27;;;5.80;99.90;;;;;;5087835;28;20048;-73
2022/02/19 08:54:20;;;;;;;4.63;0.95;;;5.80;99.90;;;;;;5087923;28;20108;-72
2022/02/19 08:56:48;;;;;;;5.93;1.17;;;5.80;99.90;;;;;;5071362;28;20063;-72
2022/02/19 08:59:20;;;;;;;4.95;2.00;;;5.90;99.90;;;;;;5073304;28;20047;-73
2022/02/19 09:01:56;;;;;;;7.97;1.90;;;5.90;99.90;;;;;;5056932;28;20135;-72
2022/02/19 09:04:25;;;;;;;2.55;0.98;;;6.00;99.90;;;;;;5089363;28;20590;-73
2022/02/19 09:06:52;;;;;;;5.40;0.95;;;6.10;99.90;;;;;;5073156;28;20139;-73
2022/02/19 09:09:24;;;;;;;3.35;0.73;;;6.10;99.90;;;;;;5091077;28;20044;-72
2022/02/19 09:11:56;;;;;;;4.30;1.20;;;6.10;99.90;;;;;;5091096;28;20048;-70
2022/02/19 09:14:22;;;;;;;3.53;1.10;;;6.10;99.80;;;;;;5090277;28;20040;-73
2022/02/19 09:16:50;;;;;;;4.30;0.90;;;6.10;99.80;;;;;;5072661;28;20131;-72
2022/02/19 09:19:17;;;;;;;4.20;0.88;;;6.10;99.90;;;;;;5089926;28;20119;-73
2022/02/19 09:21:45;;;;;;;4.20;0.90;;;6.20;99.90;;;;;;5072793;28;20040;-72
2022/02/19 09:24:17;;;;;;;8.17;1.83;;;6.20;97.60;;;;;;5072457;28;20048;-72
2022/02/19 09:26:48;;;;;;;3.63;0.98;;;6.30;98.70;;;;;;5090490;28;20048;-72
2022/02/19 09:29:23;;;;;;;6.30;1.20;;;6.30;97.70;;;;;;5091080;28;20040;-72
2022/02/19 09:31:54;;;;;;;4.57;1.23;;;6.30;98.50;;;;;;5090796;28;20050;-72
2022/02/19 09:34:26;;;;;;;5.50;1.58;;;6.30;97.70;;;;;;5090341;28;20036;-72
2022/02/19 09:36:53;;;;;;;3.03;0.85;;;6.40;98.00;;;;;;5072803;28;20131;-73
2022/02/19 09:39:25;;;;;;;4.82;0.95;;;6.30;97.10;;;;;;5056597;28;20042;-72
2022/02/19 09:42:03;;;;;;;;;;;6.30;98.30;;;;;;5091409;28;20032;-72
2022/02/19 09:44:30;;;;;;;4.60;1.27;;;6.40;98.80;;;;;;5051914;28;20003;-72
2022/02/19 09:47:04;;;;;;;5.95;1.38;;;6.40;98.70;;;;;;5069501;28;20044;-72
2022/02/19 09:49:39;;;;;;;5.25;1.27;;;6.50;98.30;;;;;;5047070;28;20068;-72
2022/02/19 09:52:11;;;;;;;4.55;1.00;;;6.40;98.20;;;;;;5071119;28;20557;-72
2022/02/19 09:54:38;;;;;;;3.65;1.33;;;6.30;98.00;;;;;;5067054;28;20120;-72
2022/02/19 09:57:10;;;;;;;7.18;1.38;;;6.30;96.60;;;;;;5053335;28;20039;-72
2022/02/19 09:59:42;;;;;;;5.20;1.10;;;6.20;96.70;;;;;;5063372;28;20049;-73
2022/02/19 10:02:09;;;;;;;4.32;1.27;;;6.20;96.20;;;;;;5057622;28;20044;-73
2022/02/19 10:04:44;;;;;;;;;;;6.20;96.70;;;;;;5052640;28;20055;-73
2022/02/19 10:07:18;;;;;;;4.38;1.45;;;6.30;96.90;;;;;;5070071;28;19920;-72
2022/02/19 10:09:50;;;;;;;5.60;1.75;;;6.40;97.10;;;;;;5056693;28;20044;-72
2022/02/19 10:12:17;;;;;;;4.82;1.05;;;6.50;97.00;;;;;;5072876;28;20049;-73
2022/02/19 10:14:51;;;;;;;3.67;1.52;;;6.60;95.90;;;;;;5072823;28;20487;-73
2022/02/19 10:17:25;;;;;;;6.47;1.10;;;6.70;97.00;;;;;;5074028;28;20057;-71
2022/02/19 10:20:00;;;;;;;5.18;1.45;;;6.70;96.40;;;;;;5058886;28;20131;-72
2022/02/19 10:22:36;;;;;;;4.35;1.20;;;6.80;97.40;;;;;;5074125;28;20098;-73
2022/02/19 10:25:13;;;;;;;8.77;1.80;;;6.90;97.90;;;;;;5055948;28;20078;-72
2022/02/19 10:27:48;;;;;;;5.78;1.35;;;7.10;97.90;;;;;;5074029;28;20044;-72
2022/02/19 10:30:19;;;;;;;6.28;1.00;;;7.20;97.60;;;;;;5073986;28;20472;-72
2022/02/19 10:33:07;;;;;;;6.68;1.63;;;7.20;97.70;;;;;;5073485;28;20041;-72
2022/02/19 10:35:40;;;;;;;4.82;1.27;;;7.00;95.90;;;;;;5056785;28;20037;-71
2022/02/19 10:38:14;;;;;;;9.20;1.20;;;6.90;96.00;;;;;;5056083;28;20115;-72
2022/02/19 10:40:52;;;;;;;3.10;1.33;;;7.00;96.20;;;;;;5053865;28;20037;-72
2022/02/19 10:43:31;;;;;;;2.60;1.00;;;7.10;94.10;;;;;;5036329;28;20116;-72
2022/02/19 10:46:05;;;;;;;3.55;1.05;;;7.00;93.30;;;;;;5037193;28;20037;-72
2022/02/19 10:48:38;;;;;;;5.22;1.15;;;6.90;94.40;;;;;;5052480;28;20530;-72
2022/02/19 10:51:19;;;;;;;5.65;1.20;;;6.90;95.90;;;;;;5052320;28;20049;-72
2022/02/19 10:54:00;;;;;;;6.03;2.30;;;6.90;95.80;;;;;;5060116;28;20491;-72
2022/02/19 10:56:28;;;;;;;4.22;1.17;;;7.10;96.60;;;;;;5039041;28;20055;-72
2022/02/19 10:58:59;;;;;;;5.55;1.27;;;7.10;96.50;;;;;;5056474;28;20036;-72
2022/02/19 11:01:42;;;;;;;6.13;1.00;;;7.20;94.30;;;;;;5056504;28;20047;-72
2022/02/19 11:04:16;;;;;;;4.53;1.35;;;7.20;95.70;;;;;;5073021;28;20123;-73
2022/02/19 11:06:56;;;;;;;5.40;1.05;;;7.30;96.20;;;;;;5057524;28;20044;-71
2022/02/19 11:09:29;;;;;;;7.95;1.33;;;7.40;95.20;;;;;;5073187;28;20044;-72
2022/02/19 11:11:57;;;;;;;4.97;1.05;;;7.40;95.20;;;;;;5073266;28;20135;-72
2022/02/19 11:14:33;;;;;;;8.52;1.45;;;7.40;96.60;;;;;;5055524;28;20063;-71
2022/02/19 11:17:12;;;;;;;7.45;1.42;;;7.60;94.10;;;;;;5071904;28;20033;-72
2022/02/19 11:19:41;;;;;;;6.18;1.75;;;7.60;94.30;;;;;;5071533;28;20111;-72
2022/02/19 11:22:14;;;;;;;;;;;7.60;93.90;;;;;;5056288;28;20507;-71
2022/02/19 11:24:48;;;;;;;5.00;1.73;;;7.70;94.30;;;;;;5072046;28;20007;-72
2022/02/19 11:27:22;;;;;;;5.40;1.13;;;7.90;94.10;;;;;;5069643;28;20135;-71
2022/02/19 11:30:00;;;;;;;3.22;0.93;;;7.90;94.70;;;;;;5072940;28;20099;-72
2022/02/19 11:32:36;;;;;;;4.63;1.33;;;8.00;93.80;;;;;;5072382;28;20529;-72
2022/02/19 11:35:05;;;;;;;2.78;1.08;;;8.10;94.10;;;;;;5072892;28;20062;-72
2022/02/19 11:37:44;;;;;;;10.70;2.78;;;8.10;91.20;;;;;;5072894;28;20041;-72
2022/02/19 11:40:15;;;;;;;2.25;1.00;;;7.90;92.80;;;;;;5054853;28;20403;-72
2022/02/19 11:42:50;;;;;;;8.45;1.00;;;7.70;91.70;;;;;;5053649;28;20044;-72
2022/02/19 11:45:31;;;;;;;3.38;0.98;;;7.50;89.00;;;;;;5087351;28;20486;-73
2022/02/19 11:48:10;;;;;;;4.63;1.08;;;7.30;91.70;;;;;;5074600;28;20067;-73
2022/02/19 11:50:43;;;;;;;3.97;1.20;;;7.30;91.80;;;;;;5092896;28;20044;-72
2022/02/19 11:53:18;;;;;;;2.40;1.25;;;7.50;91.70;;;;;;5074764;28;20130;-71
2022/02/19 11:55:51;;;;;;;2.35;0.90;;;7.60;90.60;;;;;;5092304;28;20052;-72
2022/02/19 11:58:26;;;;;;;6.97;1.10;;;7.80;90.40;;;;;;5078329;28;20029;-72
2022/02/19 12:01:12;;;;;;;1.83;1.17;;;8.00;90.70;;;;;;5069920;28;20404;-73
2022/02/19 12:03:44;;;;;;;6.40;1.15;;;8.00;86.20;;;;;;5063343;28;20044;-72
2022/02/19 12:06:23;;;;;;;6.38;2.22;;;8.20;90.50;;;;;;5071406;28;20451;-73
2022/02/19 12:09:05;;;;;;;4.63;0.95;;;8.30;90.10;;;;;;5049475;28;20117;-73
2022/02/19 12:11:32;;;;;;;4.22;1.23;;;8.40;88.70;;;;;;5054544;28;20064;-72
2022/02/19 12:14:05;;;;;;;;;;;8.40;88.90;;;;;;5054031;28;20037;-72
2022/02/19 12:16:34;;;;;;;3.63;0.90;;;8.40;87.40;;;;;;5043150;28;19928;-72
2022/02/19 12:19:09;;;;;;;;;;;8.40;85.50;;;;;;5044891;28;20720;-73
2022/02/19 12:21:43;;;;;;;7.47;1.67;;;8.50;87.10;;;;;;5054186;28;19920;-72
2022/02/19 12:24:11;;;;;;;6.38;1.10;;;8.40;85.90;;;;;;5074691;28;20048;-72
2022/02/19 12:27:08;;;;;;;6.32;1.10;;;8.40;83.20;;;;;;5053832;28;20123;-72
2022/02/19 12:29:41;;;;;;;4.38;0.70;;;8.30;84.00;;;;;;5044132;28;20041;-72
2022/02/19 12:32:18;;;;;;;4.03;1.05;;;8.20;85.00;;;;;;5065651;28;20084;-72
2022/02/19 12:34:53;;;;;;;7.07;1.55;;;8.10;84.60;;;;;;5056123;28;20028;-73
2022/02/19 12:37:32;;;;;;;;;;;8.00;85.70;;;;;;5045474;28;20037;-72
2022/02/19 12:40:05;;;;;;;4.95;0.90;;;7.90;84.90;;;;;;5065300;28;19927;-72
2022/02/19 12:42:36;;;;;;;3.35;1.00;;;7.80;84.60;;;;;;5070049;28;20495;-72
2022/02/19 12:45:07;;;;;;;2.67;0.98;;;7.70;84.40;;;;;;5080845;28;20123;-73
2022/02/19 12:47:36;;;;;;;5.53;1.60;;;7.60;82.90;;;;;;5069749;28;20039;-72
2022/02/19 12:50:12;;;;;;;3.30;1.05;;;7.50;84.10;;;;;;5083900;28;20047;-72
2022/02/19 12:52:52;;;;;;;3.65;1.00;;;7.40;85.80;;;;;;5087919;28;20040;-71
2022/02/19 12:55:25;;;;;;;2.03;0.75;;;7.40;87.20;;;;;;5086071;28;20554;-72
2022/02/19 12:58:00;;;;;;;2.30;0.90;;;7.30;85.60;;;;;;5067172;28;20549;-72
2022/02/19 13:00:31;;;;;;;2.72;0.70;;;7.30;87.20;;;;;;5048358;28;20051;-72
2022/02/19 13:03:05;;;;;;;5.60;1.00;;;7.30;87.00;;;;;;5062314;28;20650;-72
2022/02/19 13:05:34;;;;;;;4.68;1.05;;;7.30;87.30;;;;;;5090917;28;20046;-72
2022/02/19 13:08:07;;;;;;;2.40;0.73;;;7.30;86.60;;;;;;5088404;28;20513;-72
2022/02/19 13:10:43;;;;;;;4.72;1.00;;;7.20;87.90;;;;;;5091180;28;20490;-72
2022/02/19 13:13:21;;;;;;;3.25;1.08;;;7.10;87.70;;;;;;5090522;28;20046;-72
2022/02/19 13:15:56;;;;;;;3.50;1.38;;;7.10;88.00;;;;;;5071875;28;20487;-72
2022/02/19 13:18:34;;;;;;;3.47;1.00;;;7.10;87.00;;;;;;5090914;28;20494;-72
2022/02/19 13:21:08;;;;;;;4.85;1.00;;;7.20;88.30;;;;;;5056901;28;20035;-72
2022/02/19 13:23:40;;;;;;;4.60;0.80;;;7.10;89.20;;;;;;5090448;28;20040;-72
2022/02/19 13:26:29;;;;;;;3.22;1.20;;;7.10;85.40;;;;;;5056825;28;20048;-72
2022/02/19 13:29:01;;;;;;;3.83;1.20;;;7.10;88.10;;;;;;5090997;28;20054;-72
2022/02/19 13:31:34;;;;;;;6.20;1.83;;;7.00;86.10;;;;;;5090623;28;20044;-72
2022/02/19 13:34:07;;;;;;;3.28;0.93;;;7.10;86.00;;;;;;5090464;28;20119;-72
2022/02/19 13:36:40;;;;;;;2.92;1.00;;;7.40;85.30;;;;;;5090956;28;20036;-72
2022/02/19 13:39:20;;;;;;;3.80;1.13;;;7.60;85.40;;;;;;5090962;28;20048;-72
2022/02/19 13:41:54;;;;;;;5.03;1.15;;;7.90;85.60;;;;;;5092738;28;20447;-72